sensor_id;sensor_type;location;lat;lon;timestamp;pressure;altitude;pressure_sealevel;temperature;humidity
63700;BME280;49845;47.130;142.766;2024-02-21T00:02:08;101024.91;;;-6.49;65.12
63700;BME280;49845;47.130;142.766;2024-02-21T00:04:39;101029.03;;;-6.65;63.48
63700;BME280;49845;47.130;142.766;2024-02-21T00:07:10;101036.66;;;-6.52;64.02
63700;BME280;49845;47.130;142.766;2024-02-21T00:09:42;101008.00;;;-6.36;64.13
63700;BME280;49845;47.130;142.766;2024-02-21T00:12:12;101013.59;;;-6.41;62.83
63700;BME280;49845;47.130;142.766;2024-02-21T00:14:43;101018.47;;;-6.44;63.11
63700;BME280;49845;47.130;142.766;2024-02-21T00:17:14;101020.34;;;-6.55;63.40
63700;BME280;49845;47.130;142.766;2024-02-21T00:19:45;101018.84;;;-6.65;63.40
63700;BME280;49845;47.130;142.766;2024-02-21T00:22:15;101021.97;;;-6.69;63.59
63700;BME280;49845;47.130;142.766;2024-02-21T00:24:47;101032.50;;;-6.89;62.91
63700;BME280;49845;47.130;142.766;2024-02-21T00:27:18;101020.16;;;-6.97;63.19
63700;BME280;49845;47.130;142.766;2024-02-21T00:29:48;101014.53;;;-6.79;63.91
63700;BME280;49845;47.130;142.766;2024-02-21T00:32:19;101018.66;;;-6.68;63.71
63700;BME280;49845;47.130;142.766;2024-02-21T00:34:49;101021.81;;;-6.59;63.20
63700;BME280;49845;47.130;142.766;2024-02-21T00:37:20;101018.06;;;-6.77;62.15
63700;BME280;49845;47.130;142.766;2024-02-21T00:39:52;100987.16;;;-6.97;62.13
63700;BME280;49845;47.130;142.766;2024-02-21T00:42:22;100998.28;;;-6.95;62.60
63700;BME280;49845;47.130;142.766;2024-02-21T00:44:53;100985.22;;;-6.87;63.14
63700;BME280;49845;47.130;142.766;2024-02-21T00:47:23;100989.03;;;-6.67;62.71
63700;BME280;49845;47.130;142.766;2024-02-21T00:49:53;100997.16;;;-6.60;61.96
63700;BME280;49845;47.130;142.766;2024-02-21T00:52:24;101007.50;;;-6.57;62.29
63700;BME280;49845;47.130;142.766;2024-02-21T00:54:56;100996.19;;;-6.48;62.17
63700;BME280;49845;47.130;142.766;2024-02-21T00:57:26;100999.56;;;-6.08;62.61
63700;BME280;49845;47.130;142.766;2024-02-21T00:59:57;101008.13;;;-5.65;62.09
63700;BME280;49845;47.130;142.766;2024-02-21T01:02:27;100993.28;;;-5.29;60.63
63700;BME280;49845;47.130;142.766;2024-02-21T01:04:59;101004.66;;;-5.37;59.26
63700;BME280;49845;47.130;142.766;2024-02-21T01:07:30;100983.03;;;-5.58;58.59
63700;BME280;49845;47.130;142.766;2024-02-21T01:10:02;100987.38;;;-5.71;58.12
63700;BME280;49845;47.130;142.766;2024-02-21T01:12:33;100986.06;;;-5.92;58.34
63700;BME280;49845;47.130;142.766;2024-02-21T01:15:04;100974.88;;;-5.96;59.38
63700;BME280;49845;47.130;142.766;2024-02-21T01:17:34;100985.19;;;-6.08;60.03
63700;BME280;49845;47.130;142.766;2024-02-21T01:20:06;100982.25;;;-6.27;60.46
63700;BME280;49845;47.130;142.766;2024-02-21T01:22:37;100990.88;;;-6.25;60.20
63700;BME280;49845;47.130;142.766;2024-02-21T01:25:09;100984.72;;;-6.28;60.50
63700;BME280;49845;47.130;142.766;2024-02-21T01:27:40;100986.38;;;-6.16;60.95
63700;BME280;49845;47.130;142.766;2024-02-21T01:30:11;100977.84;;;-5.88;60.91
63700;BME280;49845;47.130;142.766;2024-02-21T01:32:42;100979.34;;;-5.64;61.31
63700;BME280;49845;47.130;142.766;2024-02-21T01:35:12;100991.88;;;-5.38;60.40
63700;BME280;49845;47.130;142.766;2024-02-21T01:37:43;100986.81;;;-5.52;59.54
63700;BME280;49845;47.130;142.766;2024-02-21T01:40:15;100995.09;;;-5.84;60.07
63700;BME280;49845;47.130;142.766;2024-02-21T01:42:46;100984.63;;;-6.30;60.41
63700;BME280;49845;47.130;142.766;2024-02-21T01:45:17;100985.41;;;-6.31;62.16
63700;BME280;49845;47.130;142.766;2024-02-21T01:47:48;100976.38;;;-6.13;61.80
63700;BME280;49845;47.130;142.766;2024-02-21T01:50:19;100945.22;;;-5.95;61.51
63700;BME280;49845;47.130;142.766;2024-02-21T01:52:52;100967.75;;;-5.58;61.82
63700;BME280;49845;47.130;142.766;2024-02-21T01:55:24;100963.91;;;-5.37;61.12
63700;BME280;49845;47.130;142.766;2024-02-21T01:57:55;100954.34;;;-5.41;60.41
63700;BME280;49845;47.130;142.766;2024-02-21T02:00:26;100952.41;;;-5.45;60.85
63700;BME280;49845;47.130;142.766;2024-02-21T02:02:57;100947.91;;;-5.49;61.42
63700;BME280;49845;47.130;142.766;2024-02-21T02:05:29;100944.44;;;-5.51;61.52
63700;BME280;49845;47.130;142.766;2024-02-21T02:07:59;100950.53;;;-5.63;61.25
63700;BME280;49845;47.130;142.766;2024-02-21T02:10:31;100950.59;;;-5.76;61.01
63700;BME280;49845;47.130;142.766;2024-02-21T02:13:02;100944.88;;;-5.72;61.46
63700;BME280;49845;47.130;142.766;2024-02-21T02:15:38;100948.97;;;-5.60;61.37
63700;BME280;49845;47.130;142.766;2024-02-21T02:18:09;100949.72;;;-5.33;62.52
63700;BME280;49845;47.130;142.766;2024-02-21T02:20:40;100944.78;;;-5.15;61.98
63700;BME280;49845;47.130;142.766;2024-02-21T02:23:11;100957.00;;;-5.25;61.22
63700;BME280;49845;47.130;142.766;2024-02-21T02:25:45;100953.94;;;-5.34;59.99
63700;BME280;49845;47.130;142.766;2024-02-21T02:28:17;100949.72;;;-5.18;61.22
63700;BME280;49845;47.130;142.766;2024-02-21T02:31:06;100955.16;;;-5.12;60.04
63700;BME280;49845;47.130;142.766;2024-02-21T02:33:53;100952.03;;;-5.94;59.21
63700;BME280;49845;47.130;142.766;2024-02-21T02:36:40;100940.25;;;-7.02;62.30
63700;BME280;49845;47.130;142.766;2024-02-21T02:39:27;100943.31;;;-7.32;63.00
63700;BME280;49845;47.130;142.766;2024-02-21T02:42:16;100940.66;;;-7.72;65.90
63700;BME280;49845;47.130;142.766;2024-02-21T02:45:03;100936.94;;;-7.77;66.67
63700;BME280;49845;47.130;142.766;2024-02-21T02:47:34;100935.06;;;-8.05;67.05
63700;BME280;49845;47.130;142.766;2024-02-21T02:50:05;100939.66;;;-8.36;67.86
63700;BME280;49845;47.130;142.766;2024-02-21T02:52:36;100940.47;;;-8.49;67.70
63700;BME280;49845;47.130;142.766;2024-02-21T02:55:07;100873.34;;;-8.91;69.00
63700;BME280;49845;47.130;142.766;2024-02-21T02:57:40;100934.22;;;-8.54;69.23
63700;BME280;49845;47.130;142.766;2024-02-21T03:00:11;100930.72;;;-8.31;69.55
63700;BME280;49845;47.130;142.766;2024-02-21T03:02:45;100922.88;;;-7.86;68.40
63700;BME280;49845;47.130;142.766;2024-02-21T03:05:17;100932.59;;;-7.92;67.45
63700;BME280;49845;47.130;142.766;2024-02-21T03:07:48;100922.03;;;-7.98;67.08
63700;BME280;49845;47.130;142.766;2024-02-21T03:10:19;100936.59;;;-8.07;66.31
63700;BME280;49845;47.130;142.766;2024-02-21T03:12:51;100927.34;;;-8.07;66.85
63700;BME280;49845;47.130;142.766;2024-02-21T03:15:22;100930.00;;;-8.05;65.53
63700;BME280;49845;47.130;142.766;2024-02-21T03:17:52;100915.09;;;-8.37;64.74
63700;BME280;49845;47.130;142.766;2024-02-21T03:20:23;100907.03;;;-8.92;63.35
63700;BME280;49845;47.130;142.766;2024-02-21T03:22:53;100923.78;;;-8.94;63.78
63700;BME280;49845;47.130;142.766;2024-02-21T03:25:24;100923.31;;;-8.53;63.36
63700;BME280;49845;47.130;142.766;2024-02-21T03:27:56;100917.25;;;-8.18;62.98
63700;BME280;49845;47.130;142.766;2024-02-21T03:30:26;100903.56;;;-7.84;62.43
63700;BME280;49845;47.130;142.766;2024-02-21T03:32:57;100907.50;;;-7.62;60.30
63700;BME280;49845;47.130;142.766;2024-02-21T03:35:27;100902.88;;;-7.56;58.69
63700;BME280;49845;47.130;142.766;2024-02-21T03:37:58;100909.63;;;-7.43;58.40
63700;BME280;49845;47.130;142.766;2024-02-21T03:40:29;100907.72;;;-7.21;57.43
63700;BME280;49845;47.130;142.766;2024-02-21T03:43:01;100887.66;;;-7.43;56.29
63700;BME280;49845;47.130;142.766;2024-02-21T03:45:32;100801.50;;;-7.66;56.85
63700;BME280;49845;47.130;142.766;2024-02-21T03:48:02;100909.41;;;-6.81;55.93
63700;BME280;49845;47.130;142.766;2024-02-21T03:50:33;100897.25;;;-6.59;55.57
63700;BME280;49845;47.130;142.766;2024-02-21T03:53:04;100903.91;;;-6.87;56.23
63700;BME280;49845;47.130;142.766;2024-02-21T03:55:34;100911.59;;;-7.64;57.53
63700;BME280;49845;47.130;142.766;2024-02-21T03:58:07;100906.13;;;-8.57;59.64
63700;BME280;49845;47.130;142.766;2024-02-21T04:00:37;100898.66;;;-8.91;61.77
63700;BME280;49845;47.130;142.766;2024-02-21T04:03:08;100895.16;;;-9.17;62.74
63700;BME280;49845;47.130;142.766;2024-02-21T04:05:38;100894.69;;;-9.46;63.43
63700;BME280;49845;47.130;142.766;2024-02-21T04:08:09;100886.75;;;-9.63;64.20
63700;BME280;49845;47.130;142.766;2024-02-21T04:10:39;100709.97;;;-10.74;65.03
63700;BME280;49845;47.130;142.766;2024-02-21T04:13:11;100875.53;;;-9.55;65.10
63700;BME280;49845;47.130;142.766;2024-02-21T04:15:42;100886.69;;;-9.17;64.10
63700;BME280;49845;47.130;142.766;2024-02-21T04:18:12;100883.47;;;-8.91;63.97
63700;BME280;49845;47.130;142.766;2024-02-21T04:20:44;100883.94;;;-8.85;64.25
63700;BME280;49845;47.130;142.766;2024-02-21T04:23:14;100884.59;;;-8.87;63.11
63700;BME280;49845;47.130;142.766;2024-02-21T04:25:44;100884.38;;;-8.91;62.50
63700;BME280;49845;47.130;142.766;2024-02-21T04:28:17;100830.44;;;-9.25;61.84
63700;BME280;49845;47.130;142.766;2024-02-21T04:30:47;100865.44;;;-9.31;61.81
63700;BME280;49845;47.130;142.766;2024-02-21T04:33:18;100896.16;;;-9.15;62.74
63700;BME280;49845;47.130;142.766;2024-02-21T04:35:48;100895.59;;;-9.46;63.88
63700;BME280;49845;47.130;142.766;2024-02-21T04:38:20;100899.75;;;-9.46;66.28
63700;BME280;49845;47.130;142.766;2024-02-21T04:40:50;100883.91;;;-9.08;67.12
63700;BME280;49845;47.130;142.766;2024-02-21T04:43:23;100884.19;;;-8.57;66.75
63700;BME280;49845;47.130;142.766;2024-02-21T04:45:53;100881.66;;;-8.45;64.97
63700;BME280;49845;47.130;142.766;2024-02-21T04:48:24;100875.72;;;-8.32;64.69
63700;BME280;49845;47.130;142.766;2024-02-21T04:50:55;100876.22;;;-8.13;64.82
63700;BME280;49845;47.130;142.766;2024-02-21T04:53:25;100871.47;;;-7.83;64.63
63700;BME280;49845;47.130;142.766;2024-02-21T04:55:55;100877.25;;;-7.59;63.98
63700;BME280;49845;47.130;142.766;2024-02-21T04:58:28;100887.19;;;-8.00;60.30
63700;BME280;49845;47.130;142.766;2024-02-21T05:00:58;100887.31;;;-8.73;59.68
63700;BME280;49845;47.130;142.766;2024-02-21T05:03:29;100880.53;;;-9.21;60.09
63700;BME280;49845;47.130;142.766;2024-02-21T05:05:59;100883.03;;;-9.44;60.77
63700;BME280;49845;47.130;142.766;2024-02-21T05:08:30;100876.38;;;-9.78;60.88
63700;BME280;49845;47.130;142.766;2024-02-21T05:11:01;100884.91;;;-9.87;61.33
63700;BME280;49845;47.130;142.766;2024-02-21T05:13:33;100864.91;;;-9.84;61.46
63700;BME280;49845;47.130;142.766;2024-02-21T05:16:05;100895.56;;;-9.58;61.28
63700;BME280;49845;47.130;142.766;2024-02-21T05:18:36;100896.91;;;-9.39;60.78
63700;BME280;49845;47.130;142.766;2024-02-21T05:21:06;100891.63;;;-9.42;61.43
63700;BME280;49845;47.130;142.766;2024-02-21T05:23:37;100883.22;;;-9.65;61.96
63700;BME280;49845;47.130;142.766;2024-02-21T05:26:07;100871.97;;;-9.80;62.96
63700;BME280;49845;47.130;142.766;2024-02-21T05:28:40;100884.06;;;-9.76;62.55
63700;BME280;49845;47.130;142.766;2024-02-21T05:31:10;100884.53;;;-9.70;62.13
63700;BME280;49845;47.130;142.766;2024-02-21T05:33:44;100870.09;;;-9.71;62.61
63700;BME280;49845;47.130;142.766;2024-02-21T05:36:15;100877.97;;;-9.44;62.33
63700;BME280;49845;47.130;142.766;2024-02-21T05:38:45;100874.03;;;-9.17;62.30
63700;BME280;49845;47.130;142.766;2024-02-21T05:41:16;100886.13;;;-8.78;62.13
63700;BME280;49845;47.130;142.766;2024-02-21T05:43:48;100884.97;;;-8.46;61.86
63700;BME280;49845;47.130;142.766;2024-02-21T05:46:19;100884.00;;;-8.35;61.04
63700;BME280;49845;47.130;142.766;2024-02-21T05:48:50;100887.34;;;-8.36;60.58
63700;BME280;49845;47.130;142.766;2024-02-21T05:51:21;100884.88;;;-8.34;60.49
63700;BME280;49845;47.130;142.766;2024-02-21T05:53:51;100885.31;;;-8.28;60.14
63700;BME280;49845;47.130;142.766;2024-02-21T05:56:22;100889.22;;;-8.08;60.57
63700;BME280;49845;47.130;142.766;2024-02-21T05:58:54;100887.13;;;-7.89;60.45
63700;BME280;49845;47.130;142.766;2024-02-21T06:01:25;100890.13;;;-7.69;60.06
63700;BME280;49845;47.130;142.766;2024-02-21T06:03:56;100891.22;;;-7.66;59.46
63700;BME280;49845;47.130;142.766;2024-02-21T06:06:26;100865.09;;;-7.90;59.14
63700;BME280;49845;47.130;142.766;2024-02-21T06:08:57;100890.78;;;-8.22;57.85
63700;BME280;49845;47.130;142.766;2024-02-21T06:11:28;100859.47;;;-8.73;57.99
63700;BME280;49845;47.130;142.766;2024-02-21T06:14:00;100891.41;;;-8.75;58.62
63700;BME280;49845;47.130;142.766;2024-02-21T06:16:31;100894.06;;;-8.97;59.61
63700;BME280;49845;47.130;142.766;2024-02-21T06:19:01;100895.63;;;-9.10;60.93
63700;BME280;49845;47.130;142.766;2024-02-21T06:21:36;100901.06;;;-9.51;62.01
63700;BME280;49845;47.130;142.766;2024-02-21T06:24:07;100890.59;;;-9.68;64.49
63700;BME280;49845;47.130;142.766;2024-02-21T06:26:37;100778.19;;;-10.40;65.19
63700;BME280;49845;47.130;142.766;2024-02-21T06:29:10;100921.97;;;-9.42;65.36
63700;BME280;49845;47.130;142.766;2024-02-21T06:31:41;100920.03;;;-9.23;65.25
63700;BME280;49845;47.130;142.766;2024-02-21T06:34:12;100925.75;;;-9.02;65.65
63700;BME280;49845;47.130;142.766;2024-02-21T06:36:42;100928.63;;;-9.09;64.48
63700;BME280;49845;47.130;142.766;2024-02-21T06:39:14;100924.78;;;-9.16;64.46
63700;BME280;49845;47.130;142.766;2024-02-21T06:41:45;100924.00;;;-9.15;64.20
63700;BME280;49845;47.130;142.766;2024-02-21T06:44:17;100929.06;;;-9.15;63.01
63700;BME280;49845;47.130;142.766;2024-02-21T06:46:48;100926.16;;;-9.31;60.88
63700;BME280;49845;47.130;142.766;2024-02-21T06:49:18;100922.41;;;-9.36;60.99
63700;BME280;49845;47.130;142.766;2024-02-21T06:51:49;100923.53;;;-9.32;60.73
63700;BME280;49845;47.130;142.766;2024-02-21T06:54:20;100926.94;;;-9.32;60.70
63700;BME280;49845;47.130;142.766;2024-02-21T06:56:50;100922.88;;;-9.30;60.54
63700;BME280;49845;47.130;142.766;2024-02-21T06:59:22;100929.03;;;-9.38;60.06
63700;BME280;49845;47.130;142.766;2024-02-21T07:01:54;100930.56;;;-9.40;59.99
63700;BME280;49845;47.130;142.766;2024-02-21T07:04:25;100929.19;;;-9.59;59.40
63700;BME280;49845;47.130;142.766;2024-02-21T07:06:55;100928.28;;;-9.71;58.05
63700;BME280;49845;47.130;142.766;2024-02-21T07:09:26;100937.03;;;-10.33;56.23
63700;BME280;49845;47.130;142.766;2024-02-21T07:11:57;100926.56;;;-10.92;59.67
63700;BME280;49845;47.130;142.766;2024-02-21T07:14:30;100938.31;;;-11.13;61.77
63700;BME280;49845;47.130;142.766;2024-02-21T07:17:02;100945.69;;;-11.37;63.18
63700;BME280;49845;47.130;142.766;2024-02-21T07:19:32;100945.91;;;-11.34;64.80
63700;BME280;49845;47.130;142.766;2024-02-21T07:22:04;100932.81;;;-11.30;64.88
63700;BME280;49845;47.130;142.766;2024-02-21T07:24:34;100926.28;;;-11.48;65.57
63700;BME280;49845;47.130;142.766;2024-02-21T07:27:06;100940.63;;;-11.37;66.04
63700;BME280;49845;47.130;142.766;2024-02-21T07:29:37;100939.38;;;-11.32;66.50
63700;BME280;49845;47.130;142.766;2024-02-21T07:32:08;100948.06;;;-11.18;66.66
63700;BME280;49845;47.130;142.766;2024-02-21T07:34:38;100937.81;;;-11.09;66.67
63700;BME280;49845;47.130;142.766;2024-02-21T07:37:09;100952.47;;;-11.15;66.54
63700;BME280;49845;47.130;142.766;2024-02-21T07:39:39;100954.22;;;-11.14;66.95
63700;BME280;49845;47.130;142.766;2024-02-21T07:42:10;100967.84;;;-11.02;67.32
63700;BME280;49845;47.130;142.766;2024-02-21T07:44:42;100970.38;;;-11.02;67.12
63700;BME280;49845;47.130;142.766;2024-02-21T07:47:13;100973.38;;;-11.06;66.67
63700;BME280;49845;47.130;142.766;2024-02-21T07:49:44;100972.28;;;-11.20;67.15
63700;BME280;49845;47.130;142.766;2024-02-21T07:52:17;100970.41;;;-11.33;67.17
63700;BME280;49845;47.130;142.766;2024-02-21T07:54:48;100986.19;;;-11.45;67.26
63700;BME280;49845;47.130;142.766;2024-02-21T07:57:18;100988.94;;;-11.63;67.37
63700;BME280;49845;47.130;142.766;2024-02-21T07:59:50;100988.28;;;-11.70;67.04
63700;BME280;49845;47.130;142.766;2024-02-21T08:02:21;100989.03;;;-11.82;67.28
63700;BME280;49845;47.130;142.766;2024-02-21T08:04:51;100984.72;;;-12.03;67.21
63700;BME280;49845;47.130;142.766;2024-02-21T08:07:22;100981.47;;;-12.42;67.27
63700;BME280;49845;47.130;142.766;2024-02-21T08:09:53;100998.16;;;-12.52;68.23
63700;BME280;49845;47.130;142.766;2024-02-21T08:12:23;100990.16;;;-12.38;68.48
63700;BME280;49845;47.130;142.766;2024-02-21T08:14:55;100987.00;;;-12.35;68.61
63700;BME280;49845;47.130;142.766;2024-02-21T08:17:26;100985.88;;;-12.39;68.97
63700;BME280;49845;47.130;142.766;2024-02-21T08:19:57;100996.94;;;-12.47;68.77
63700;BME280;49845;47.130;142.766;2024-02-21T08:22:27;101001.47;;;-12.43;68.59
63700;BME280;49845;47.130;142.766;2024-02-21T08:24:58;101003.28;;;-12.32;68.76
63700;BME280;49845;47.130;142.766;2024-02-21T08:27:29;101015.13;;;-12.60;67.64
63700;BME280;49845;47.130;142.766;2024-02-21T08:30:01;101019.75;;;-12.84;67.85
63700;BME280;49845;47.130;142.766;2024-02-21T08:32:32;101022.28;;;-13.02;67.98
63700;BME280;49845;47.130;142.766;2024-02-21T08:35:04;101025.88;;;-13.09;68.25
63700;BME280;49845;47.130;142.766;2024-02-21T08:37:36;101026.88;;;-13.26;68.19
63700;BME280;49845;47.130;142.766;2024-02-21T08:40:07;101018.16;;;-13.49;68.45
63700;BME280;49845;47.130;142.766;2024-02-21T08:42:39;101014.34;;;-13.81;68.40
63700;BME280;49845;47.130;142.766;2024-02-21T08:45:12;101019.97;;;-14.38;68.59
63700;BME280;49845;47.130;142.766;2024-02-21T08:47:42;101013.59;;;-14.79;69.65
63700;BME280;49845;47.130;142.766;2024-02-21T08:50:13;101015.66;;;-14.84;70.79
63700;BME280;49845;47.130;142.766;2024-02-21T08:52:54;100969.63;;;-15.10;71.71
63700;BME280;49845;47.130;142.766;2024-02-21T08:55:26;101022.16;;;-14.86;71.84
63700;BME280;49845;47.130;142.766;2024-02-21T08:57:57;101025.13;;;-15.07;71.25
63700;BME280;49845;47.130;142.766;2024-02-21T09:00:29;101035.09;;;-15.42;71.53
63700;BME280;49845;47.130;142.766;2024-02-21T09:02:59;101021.03;;;-15.66;72.25
63700;BME280;49845;47.130;142.766;2024-02-21T09:05:30;101032.66;;;-15.67;72.99
63700;BME280;49845;47.130;142.766;2024-02-21T09:08:00;101027.69;;;-16.00;73.47
63700;BME280;49845;47.130;142.766;2024-02-21T09:10:31;101033.63;;;-16.24;73.37
63700;BME280;49845;47.130;142.766;2024-02-21T09:13:02;101027.88;;;-16.47;73.76
63700;BME280;49845;47.130;142.766;2024-02-21T09:15:34;101020.69;;;-16.69;74.25
63700;BME280;49845;47.130;142.766;2024-02-21T09:18:05;101022.72;;;-16.74;75.07
63700;BME280;49845;47.130;142.766;2024-02-21T09:20:35;101029.47;;;-16.73;76.83
63700;BME280;49845;47.130;142.766;2024-02-21T09:23:06;101007.41;;;-16.77;77.05
63700;BME280;49845;47.130;142.766;2024-02-21T09:25:36;101029.25;;;-16.67;77.70
63700;BME280;49845;47.130;142.766;2024-02-21T09:28:08;101024.25;;;-16.67;77.87
63700;BME280;49845;47.130;142.766;2024-02-21T09:30:40;101009.34;;;-16.49;78.98
63700;BME280;49845;47.130;142.766;2024-02-21T09:33:11;101025.94;;;-16.25;78.49
63700;BME280;49845;47.130;142.766;2024-02-21T09:35:57;101027.06;;;-16.39;77.88
63700;BME280;49845;47.130;142.766;2024-02-21T09:38:27;101027.44;;;-16.52;78.03
63700;BME280;49845;47.130;142.766;2024-02-21T09:41:00;101031.63;;;-16.60;78.22
63700;BME280;49845;47.130;142.766;2024-02-21T09:43:35;101016.31;;;-16.63;78.48
63700;BME280;49845;47.130;142.766;2024-02-21T09:46:16;101002.06;;;-16.64;78.71
63700;BME280;49845;47.130;142.766;2024-02-21T09:48:51;100999.84;;;-16.61;79.06
63700;BME280;49845;47.130;142.766;2024-02-21T09:51:25;100998.50;;;-16.66;79.16
63700;BME280;49845;47.130;142.766;2024-02-21T09:53:58;101007.75;;;-16.65;79.19
63700;BME280;49845;47.130;142.766;2024-02-21T09:56:44;100995.38;;;-16.72;79.32
63700;BME280;49845;47.130;142.766;2024-02-21T09:59:16;100976.00;;;-16.90;79.39
63700;BME280;49845;47.130;142.766;2024-02-21T10:01:48;100994.78;;;-16.78;79.21
63700;BME280;49845;47.130;142.766;2024-02-21T10:04:20;100932.44;;;-17.17;79.27
63700;BME280;49845;47.130;142.766;2024-02-21T10:06:51;100997.88;;;-16.72;79.62
63700;BME280;49845;47.130;142.766;2024-02-21T10:09:22;101001.59;;;-16.60;79.96
63700;BME280;49845;47.130;142.766;2024-02-21T10:12:07;101004.34;;;-16.49;79.75
63700;BME280;49845;47.130;142.766;2024-02-21T10:14:38;101004.22;;;-16.42;79.77
63700;BME280;49845;47.130;142.766;2024-02-21T10:17:16;101010.50;;;-15.88;80.85
63700;BME280;49845;47.130;142.766;2024-02-21T10:19:47;101008.22;;;-15.69;80.32
63700;BME280;49845;47.130;142.766;2024-02-21T10:22:19;101008.53;;;-15.49;79.99
63700;BME280;49845;47.130;142.766;2024-02-21T10:24:50;100999.72;;;-15.36;79.46
63700;BME280;49845;47.130;142.766;2024-02-21T10:27:24;101013.41;;;-15.33;78.42
63700;BME280;49845;47.130;142.766;2024-02-21T10:29:54;101015.03;;;-15.42;77.53
63700;BME280;49845;47.130;142.766;2024-02-21T10:32:26;101005.03;;;-15.42;76.48
63700;BME280;49845;47.130;142.766;2024-02-21T10:35:02;100991.41;;;-15.53;75.85
63700;BME280;49845;47.130;142.766;2024-02-21T10:37:33;101002.03;;;-15.55;75.26
63700;BME280;49845;47.130;142.766;2024-02-21T10:40:05;101002.59;;;-15.67;74.65
63700;BME280;49845;47.130;142.766;2024-02-21T10:42:36;101004.94;;;-15.68;74.97
63700;BME280;49845;47.130;142.766;2024-02-21T10:45:08;101014.44;;;-15.48;75.65
63700;BME280;49845;47.130;142.766;2024-02-21T10:47:50;101015.34;;;-15.39;75.52
63700;BME280;49845;47.130;142.766;2024-02-21T10:50:25;101014.75;;;-15.28;75.94
63700;BME280;49845;47.130;142.766;2024-02-21T10:53:04;101013.59;;;-15.05;76.07
63700;BME280;49845;47.130;142.766;2024-02-21T10:55:43;101004.47;;;-15.05;75.74
63700;BME280;49845;47.130;142.766;2024-02-21T10:58:18;101020.25;;;-14.97;75.33
63700;BME280;49845;47.130;142.766;2024-02-21T11:00:50;101023.19;;;-15.10;74.67
63700;BME280;49845;47.130;142.766;2024-02-21T11:03:23;101033.34;;;-15.08;74.59
63700;BME280;49845;47.130;142.766;2024-02-21T11:05:55;101047.53;;;-14.83;75.16
63700;BME280;49845;47.130;142.766;2024-02-21T11:08:26;101027.75;;;-14.62;75.20
63700;BME280;49845;47.130;142.766;2024-02-21T11:10:58;101032.13;;;-14.51;74.92
63700;BME280;49845;47.130;142.766;2024-02-21T11:13:35;101031.81;;;-14.37;75.07
63700;BME280;49845;47.130;142.766;2024-02-21T11:16:07;101039.75;;;-14.23;75.20
63700;BME280;49845;47.130;142.766;2024-02-21T11:18:40;101028.22;;;-14.21;74.69
63700;BME280;49845;47.130;142.766;2024-02-21T11:21:11;101032.09;;;-14.34;74.15
63700;BME280;49845;47.130;142.766;2024-02-21T11:23:41;101040.66;;;-14.31;74.30
63700;BME280;49845;47.130;142.766;2024-02-21T11:26:19;100941.31;;;-14.83;74.60
63700;BME280;49845;47.130;142.766;2024-02-21T11:28:57;100980.75;;;-14.46;74.90
63700;BME280;49845;47.130;142.766;2024-02-21T11:31:38;101041.81;;;-14.19;74.82
63700;BME280;49845;47.130;142.766;2024-02-21T11:34:12;101043.28;;;-14.21;74.98
63700;BME280;49845;47.130;142.766;2024-02-21T11:36:50;101038.59;;;-14.36;74.90
63700;BME280;49845;47.130;142.766;2024-02-21T11:39:22;101047.41;;;-14.13;75.21
63700;BME280;49845;47.130;142.766;2024-02-21T11:42:03;101042.97;;;-14.07;75.39
63700;BME280;49845;47.130;142.766;2024-02-21T11:44:34;101047.06;;;-13.99;75.71
63700;BME280;49845;47.130;142.766;2024-02-21T11:47:06;101037.56;;;-13.93;75.57
63700;BME280;49845;47.130;142.766;2024-02-21T11:49:45;101044.06;;;-13.86;75.63
63700;BME280;49845;47.130;142.766;2024-02-21T11:52:18;101035.47;;;-13.79;75.75
63700;BME280;49845;47.130;142.766;2024-02-21T11:54:49;101039.19;;;-13.84;75.58
63700;BME280;49845;47.130;142.766;2024-02-21T11:57:19;101042.91;;;-13.89;75.47
63700;BME280;49845;47.130;142.766;2024-02-21T11:59:51;101033.53;;;-14.09;75.73
63700;BME280;49845;47.130;142.766;2024-02-21T12:02:27;101041.50;;;-14.05;76.54
63700;BME280;49845;47.130;142.766;2024-02-21T12:04:59;101038.22;;;-14.04;76.78
63700;BME280;49845;47.130;142.766;2024-02-21T12:07:30;101041.22;;;-14.25;77.07
63700;BME280;49845;47.130;142.766;2024-02-21T12:10:00;101034.72;;;-14.23;78.14
63700;BME280;49845;47.130;142.766;2024-02-21T12:12:31;101036.31;;;-14.15;78.63
63700;BME280;49845;47.130;142.766;2024-02-21T12:15:05;101029.25;;;-14.19;78.77
63700;BME280;49845;47.130;142.766;2024-02-21T12:17:36;101027.78;;;-14.17;79.17
63700;BME280;49845;47.130;142.766;2024-02-21T12:20:09;101036.28;;;-13.98;79.56
63700;BME280;49845;47.130;142.766;2024-02-21T12:22:42;101034.66;;;-13.97;79.56
63700;BME280;49845;47.130;142.766;2024-02-21T12:25:19;101036.97;;;-13.81;80.08
63700;BME280;49845;47.130;142.766;2024-02-21T12:27:51;101024.22;;;-13.74;80.06
63700;BME280;49845;47.130;142.766;2024-02-21T12:30:22;101041.56;;;-13.58;79.94
63700;BME280;49845;47.130;142.766;2024-02-21T12:32:52;101047.13;;;-13.43;80.22
63700;BME280;49845;47.130;142.766;2024-02-21T12:35:25;101050.47;;;-13.34;80.28
63700;BME280;49845;47.130;142.766;2024-02-21T12:37:55;101048.25;;;-13.31;79.88
63700;BME280;49845;47.130;142.766;2024-02-21T12:40:26;101062.59;;;-13.30;79.49
63700;BME280;49845;47.130;142.766;2024-02-21T12:43:01;101056.63;;;-13.50;78.61
63700;BME280;49845;47.130;142.766;2024-02-21T12:45:32;101054.19;;;-13.67;77.92
63700;BME280;49845;47.130;142.766;2024-02-21T12:48:03;101053.06;;;-13.79;77.55
63700;BME280;49845;47.130;142.766;2024-02-21T12:50:35;101017.97;;;-13.97;77.52